sensor_id;sensor_type;location;lat;lon;timestamp;P1;durP1;ratioP1;P2;durP2;ratioP2
25637;SDS011;13496;51.040;13.680;2023-03-14T00:04:55;1.80;;;0.97;;
25637;SDS011;13496;51.040;13.680;2023-03-14T00:09:57;2.80;;;1.20;;
25637;SDS011;13496;51.040;13.680;2023-03-14T00:14:59;2.05;;;1.45;;
25637;SDS011;13496;51.040;13.680;2023-03-14T00:20:05;1.63;;;1.30;;
25637;SDS011;13496;51.040;13.680;2023-03-14T00:25:12;1.58;;;1.08;;
25637;SDS011;13496;51.040;13.680;2023-03-14T00:30:14;1.40;;;1.10;;
25637;SDS011;13496;51.040;13.680;2023-03-14T00:35:15;1.77;;;1.20;;
25637;SDS011;13496;51.040;13.680;2023-03-14T00:40:17;1.73;;;1.00;;
25637;SDS011;13496;51.040;13.680;2023-03-14T00:45:19;1.60;;;1.33;;
25637;SDS011;13496;51.040;13.680;2023-03-14T00:50:20;1.23;;;1.20;;
25637;SDS011;13496;51.040;13.680;2023-03-14T00:55:22;1.48;;;1.10;;
25637;SDS011;13496;51.040;13.680;2023-03-14T01:00:23;0.90;;;0.90;;
25637;SDS011;13496;51.040;13.680;2023-03-14T01:05:25;1.10;;;1.00;;
25637;SDS011;13496;51.040;13.680;2023-03-14T01:10:27;1.63;;;1.30;;
25637;SDS011;13496;51.040;13.680;2023-03-14T01:15:29;1.40;;;1.23;;
25637;SDS011;13496;51.040;13.680;2023-03-14T01:20:33;1.13;;;1.03;;
25637;SDS011;13496;51.040;13.680;2023-03-14T01:25:34;1.20;;;1.10;;
25637;SDS011;13496;51.040;13.680;2023-03-14T01:30:42;1.10;;;1.00;;
25637;SDS011;13496;51.040;13.680;2023-03-14T01:35:44;0.93;;;0.90;;
25637;SDS011;13496;51.040;13.680;2023-03-14T01:40:46;1.23;;;1.00;;
25637;SDS011;13496;51.040;13.680;2023-03-14T01:51:08;1.10;;;1.00;;
25637;SDS011;13496;51.040;13.680;2023-03-14T01:56:13;1.00;;;0.90;;
25637;SDS011;13496;51.040;13.680;2023-03-14T02:01:18;1.20;;;1.10;;
25637;SDS011;13496;51.040;13.680;2023-03-14T02:06:24;1.40;;;0.97;;
25637;SDS011;13496;51.040;13.680;2023-03-14T02:11:35;1.52;;;1.00;;
25637;SDS011;13496;51.040;13.680;2023-03-14T02:16:44;0.90;;;0.90;;
25637;SDS011;13496;51.040;13.680;2023-03-14T02:22:04;1.00;;;0.93;;
25637;SDS011;13496;51.040;13.680;2023-03-14T02:27:18;1.20;;;1.10;;
25637;SDS011;13496;51.040;13.680;2023-03-14T02:32:22;1.20;;;1.10;;
25637;SDS011;13496;51.040;13.680;2023-03-14T02:37:33;0.80;;;0.80;;
25637;SDS011;13496;51.040;13.680;2023-03-14T02:42:40;0.93;;;0.90;;
25637;SDS011;13496;51.040;13.680;2023-03-14T02:47:43;0.70;;;0.70;;
25637;SDS011;13496;51.040;13.680;2023-03-14T02:52:49;0.90;;;0.90;;
25637;SDS011;13496;51.040;13.680;2023-03-14T02:57:50;0.70;;;0.70;;
25637;SDS011;13496;51.040;13.680;2023-03-14T03:02:53;2.72;;;0.90;;
25637;SDS011;13496;51.040;13.680;2023-03-14T03:07:55;1.00;;;1.00;;
25637;SDS011;13496;51.040;13.680;2023-03-14T03:12:58;0.70;;;0.70;;
25637;SDS011;13496;51.040;13.680;2023-03-14T03:18:02;1.03;;;1.00;;
25637;SDS011;13496;51.040;13.680;2023-03-14T03:23:03;1.00;;;0.90;;
25637;SDS011;13496;51.040;13.680;2023-03-14T03:28:05;0.85;;;0.75;;
25637;SDS011;13496;51.040;13.680;2023-03-14T03:33:11;0.97;;;0.90;;
25637;SDS011;13496;51.040;13.680;2023-03-14T03:38:13;0.80;;;0.80;;
25637;SDS011;13496;51.040;13.680;2023-03-14T03:43:17;0.88;;;0.88;;
25637;SDS011;13496;51.040;13.680;2023-03-14T03:48:21;0.70;;;0.70;;
25637;SDS011;13496;51.040;13.680;2023-03-14T03:53:23;0.97;;;0.93;;
25637;SDS011;13496;51.040;13.680;2023-03-14T03:58:25;0.70;;;0.70;;
25637;SDS011;13496;51.040;13.680;2023-03-14T04:03:27;0.80;;;0.80;;
25637;SDS011;13496;51.040;13.680;2023-03-14T04:08:31;1.00;;;0.73;;
25637;SDS011;13496;51.040;13.680;2023-03-14T04:13:33;0.80;;;0.80;;
25637;SDS011;13496;51.040;13.680;2023-03-14T04:18:34;0.60;;;0.60;;
25637;SDS011;13496;51.040;13.680;2023-03-14T04:23:36;0.90;;;0.90;;
25637;SDS011;13496;51.040;13.680;2023-03-14T04:28:40;1.00;;;0.90;;
25637;SDS011;13496;51.040;13.680;2023-03-14T04:33:43;1.00;;;0.90;;
25637;SDS011;13496;51.040;13.680;2023-03-14T04:38:44;0.90;;;0.70;;
25637;SDS011;13496;51.040;13.680;2023-03-14T04:43:48;0.90;;;0.90;;
25637;SDS011;13496;51.040;13.680;2023-03-14T04:48:50;0.90;;;0.90;;
25637;SDS011;13496;51.040;13.680;2023-03-14T04:53:54;1.00;;;1.00;;
25637;SDS011;13496;51.040;13.680;2023-03-14T04:58:56;0.80;;;0.80;;
25637;SDS011;13496;51.040;13.680;2023-03-14T05:03:58;0.70;;;0.70;;
25637;SDS011;13496;51.040;13.680;2023-03-14T05:09:12;0.90;;;0.70;;
25637;SDS011;13496;51.040;13.680;2023-03-14T05:14:16;0.85;;;0.85;;
25637;SDS011;13496;51.040;13.680;2023-03-14T05:19:31;0.83;;;0.83;;
25637;SDS011;13496;51.040;13.680;2023-03-14T05:25:01;1.80;;;1.00;;
25637;SDS011;13496;51.040;13.680;2023-03-14T05:30:32;1.10;;;0.90;;
25637;SDS011;13496;51.040;13.680;2023-03-14T05:35:48;1.10;;;0.70;;
25637;SDS011;13496;51.040;13.680;2023-03-14T05:41:13;0.70;;;0.70;;
25637;SDS011;13496;51.040;13.680;2023-03-14T05:46:32;0.87;;;0.80;;
25637;SDS011;13496;51.040;13.680;2023-03-14T05:51:46;1.43;;;1.00;;
25637;SDS011;13496;51.040;13.680;2023-03-14T05:57:07;1.40;;;1.00;;
25637;SDS011;13496;51.040;13.680;2023-03-14T06:02:20;0.90;;;0.67;;
25637;SDS011;13496;51.040;13.680;2023-03-14T06:07:32;0.70;;;0.70;;
25637;SDS011;13496;51.040;13.680;2023-03-14T06:12:33;0.80;;;0.80;;
25637;SDS011;13496;51.040;13.680;2023-03-14T06:17:35;0.97;;;0.93;;
25637;SDS011;13496;51.040;13.680;2023-03-14T06:22:42;0.67;;;0.67;;
25637;SDS011;13496;51.040;13.680;2023-03-14T06:27:46;1.10;;;1.00;;
25637;SDS011;13496;51.040;13.680;2023-03-14T06:32:49;1.57;;;1.00;;
25637;SDS011;13496;51.040;13.680;2023-03-14T06:37:52;0.97;;;0.87;;
25637;SDS011;13496;51.040;13.680;2023-03-14T06:42:54;0.83;;;0.80;;
25637;SDS011;13496;51.040;13.680;2023-03-14T06:47:57;2.60;;;0.90;;
25637;SDS011;13496;51.040;13.680;2023-03-14T06:53:06;1.67;;;0.87;;
25637;SDS011;13496;51.040;13.680;2023-03-14T06:58:11;1.10;;;1.00;;
25637;SDS011;13496;51.040;13.680;2023-03-14T07:03:17;1.27;;;0.80;;
25637;SDS011;13496;51.040;13.680;2023-03-14T07:08:24;1.30;;;0.70;;
25637;SDS011;13496;51.040;13.680;2023-03-14T07:13:25;1.17;;;0.80;;
25637;SDS011;13496;51.040;13.680;2023-03-14T07:18:33;1.13;;;0.80;;
25637;SDS011;13496;51.040;13.680;2023-03-14T07:23:39;0.88;;;0.77;;
25637;SDS011;13496;51.040;13.680;2023-03-14T07:28:41;2.55;;;1.00;;
25637;SDS011;13496;51.040;13.680;2023-03-14T07:33:48;2.80;;;1.30;;
25637;SDS011;13496;51.040;13.680;2023-03-14T07:38:50;0.73;;;0.73;;
25637;SDS011;13496;51.040;13.680;2023-03-14T07:44:04;1.63;;;0.80;;
25637;SDS011;13496;51.040;13.680;2023-03-14T07:49:06;2.37;;;0.93;;
25637;SDS011;13496;51.040;13.680;2023-03-14T07:54:08;1.00;;;0.90;;
25637;SDS011;13496;51.040;13.680;2023-03-14T07:59:09;1.23;;;0.90;;
25637;SDS011;13496;51.040;13.680;2023-03-14T08:04:12;1.00;;;0.90;;
25637;SDS011;13496;51.040;13.680;2023-03-14T08:09:13;1.85;;;1.02;;
25637;SDS011;13496;51.040;13.680;2023-03-14T08:14:15;1.20;;;1.10;;
25637;SDS011;13496;51.040;13.680;2023-03-14T08:19:17;0.73;;;0.73;;
25637;SDS011;13496;51.040;13.680;2023-03-14T08:24:19;0.77;;;0.67;;
25637;SDS011;13496;51.040;13.680;2023-03-14T08:29:20;1.00;;;0.90;;
25637;SDS011;13496;51.040;13.680;2023-03-14T08:34:22;1.63;;;0.90;;
25637;SDS011;13496;51.040;13.680;2023-03-14T08:39:30;1.38;;;0.90;;
25637;SDS011;13496;51.040;13.680;2023-03-14T08:44:32;0.82;;;0.73;;
25637;SDS011;13496;51.040;13.680;2023-03-14T08:49:34;0.88;;;0.80;;
25637;SDS011;13496;51.040;13.680;2023-03-14T08:54:36;1.65;;;0.90;;
25637;SDS011;13496;51.040;13.680;2023-03-14T08:59:37;1.35;;;0.80;;
25637;SDS011;13496;51.040;13.680;2023-03-14T09:04:39;1.10;;;0.80;;
25637;SDS011;13496;51.040;13.680;2023-03-14T09:09:41;1.03;;;0.80;;
25637;SDS011;13496;51.040;13.680;2023-03-14T09:14:43;0.93;;;0.90;;
25637;SDS011;13496;51.040;13.680;2023-03-14T09:19:44;1.55;;;0.82;;
25637;SDS011;13496;51.040;13.680;2023-03-14T09:24:46;1.98;;;0.95;;
25637;SDS011;13496;51.040;13.680;2023-03-14T09:29:48;0.90;;;0.70;;
25637;SDS011;13496;51.040;13.680;2023-03-14T09:34:50;0.75;;;0.75;;
25637;SDS011;13496;51.040;13.680;2023-03-14T09:39:51;1.27;;;0.70;;
25637;SDS011;13496;51.040;13.680;2023-03-14T09:44:56;1.27;;;0.95;;
25637;SDS011;13496;51.040;13.680;2023-03-14T09:50:02;1.37;;;0.90;;
25637;SDS011;13496;51.040;13.680;2023-03-14T09:55:06;0.90;;;0.85;;
25637;SDS011;13496;51.040;13.680;2023-03-14T10:00:18;1.20;;;0.90;;
25637;SDS011;13496;51.040;13.680;2023-03-14T10:05:22;1.20;;;0.90;;
25637;SDS011;13496;51.040;13.680;2023-03-14T10:10:25;0.80;;;0.80;;
25637;SDS011;13496;51.040;13.680;2023-03-14T10:15:32;0.80;;;0.80;;
25637;SDS011;13496;51.040;13.680;2023-03-14T10:20:36;0.73;;;0.70;;
25637;SDS011;13496;51.040;13.680;2023-03-14T10:25:40;0.50;;;0.50;;
25637;SDS011;13496;51.040;13.680;2023-03-14T10:30:44;0.70;;;0.70;;
25637;SDS011;13496;51.040;13.680;2023-03-14T10:35:52;1.17;;;0.75;;
25637;SDS011;13496;51.040;13.680;2023-03-14T10:40:56;0.63;;;0.63;;
25637;SDS011;13496;51.040;13.680;2023-03-14T10:46:09;1.23;;;0.80;;
25637;SDS011;13496;51.040;13.680;2023-03-14T10:51:35;0.73;;;0.70;;
25637;SDS011;13496;51.040;13.680;2023-03-14T10:56:37;2.00;;;0.70;;
25637;SDS011;13496;51.040;13.680;2023-03-14T11:07:24;0.87;;;0.70;;
25637;SDS011;13496;51.040;13.680;2023-03-14T11:18:03;0.93;;;0.82;;
25637;SDS011;13496;51.040;13.680;2023-03-14T11:23:21;0.77;;;0.75;;
25637;SDS011;13496;51.040;13.680;2023-03-14T11:38:57;1.00;;;0.93;;
25637;SDS011;13496;51.040;13.680;2023-03-14T11:44:01;0.80;;;0.80;;
25637;SDS011;13496;51.040;13.680;2023-03-14T11:49:18;0.80;;;0.80;;
25637;SDS011;13496;51.040;13.680;2023-03-14T11:54:50;1.02;;;0.80;;
25637;SDS011;13496;51.040;13.680;2023-03-14T11:59:55;0.95;;;0.90;;
25637;SDS011;13496;51.040;13.680;2023-03-14T12:10:18;0.98;;;0.88;;
25637;SDS011;13496;51.040;13.680;2023-03-14T12:15:21;1.35;;;0.77;;
25637;SDS011;13496;51.040;13.680;2023-03-14T12:20:24;0.80;;;0.80;;
25637;SDS011;13496;51.040;13.680;2023-03-14T12:25:27;0.80;;;0.80;;
25637;SDS011;13496;51.040;13.680;2023-03-14T12:30:36;0.80;;;0.80;;
25637;SDS011;13496;51.040;13.680;2023-03-14T12:35:41;0.70;;;0.70;;
25637;SDS011;13496;51.040;13.680;2023-03-14T12:40:50;1.20;;;1.10;;
25637;SDS011;13496;51.040;13.680;2023-03-14T12:51:19;0.95;;;0.90;;
25637;SDS011;13496;51.040;13.680;2023-03-14T12:56:38;0.75;;;0.75;;
25637;SDS011;13496;51.040;13.680;2023-03-14T13:02:00;0.70;;;0.70;;
25637;SDS011;13496;51.040;13.680;2023-03-14T13:12:57;1.05;;;0.80;;
25637;SDS011;13496;51.040;13.680;2023-03-14T13:18:18;1.02;;;0.88;;
25637;SDS011;13496;51.040;13.680;2023-03-14T13:23:29;0.77;;;0.77;;
25637;SDS011;13496;51.040;13.680;2023-03-14T13:28:33;0.65;;;0.65;;
25637;SDS011;13496;51.040;13.680;2023-03-14T13:33:36;1.23;;;0.82;;
25637;SDS011;13496;51.040;13.680;2023-03-14T13:38:38;0.70;;;0.70;;
25637;SDS011;13496;51.040;13.680;2023-03-14T13:43:39;0.70;;;0.70;;
25637;SDS011;13496;51.040;13.680;2023-03-14T13:48:43;0.80;;;0.80;;
25637;SDS011;13496;51.040;13.680;2023-03-14T13:53:48;0.85;;;0.70;;
25637;SDS011;13496;51.040;13.680;2023-03-14T13:58:52;0.70;;;0.70;;
25637;SDS011;13496;51.040;13.680;2023-03-14T14:03:54;0.50;;;0.50;;
25637;SDS011;13496;51.040;13.680;2023-03-14T14:09:11;0.70;;;0.70;;
25637;SDS011;13496;51.040;13.680;2023-03-14T14:14:21;0.65;;;0.50;;
25637;SDS011;13496;51.040;13.680;2023-03-14T14:19:29;0.55;;;0.55;;
25637;SDS011;13496;51.040;13.680;2023-03-14T14:24:33;0.80;;;0.65;;
25637;SDS011;13496;51.040;13.680;2023-03-14T14:29:37;0.75;;;0.73;;
25637;SDS011;13496;51.040;13.680;2023-03-14T14:34:45;0.70;;;0.70;;
25637;SDS011;13496;51.040;13.680;2023-03-14T14:40:01;0.68;;;0.68;;
25637;SDS011;13496;51.040;13.680;2023-03-14T14:45:13;0.65;;;0.65;;
25637;SDS011;13496;51.040;13.680;2023-03-14T14:50:30;1.00;;;0.70;;
25637;SDS011;13496;51.040;13.680;2023-03-14T14:55:39;0.63;;;0.60;;
25637;SDS011;13496;51.040;13.680;2023-03-14T15:00:41;0.50;;;0.50;;
25637;SDS011;13496;51.040;13.680;2023-03-14T15:05:53;0.85;;;0.68;;
25637;SDS011;13496;51.040;13.680;2023-03-14T15:10:56;1.05;;;0.82;;
25637;SDS011;13496;51.040;13.680;2023-03-14T15:15:58;0.60;;;0.60;;
25637;SDS011;13496;51.040;13.680;2023-03-14T15:21:00;0.90;;;0.70;;
25637;SDS011;13496;51.040;13.680;2023-03-14T15:26:02;0.60;;;0.60;;
25637;SDS011;13496;51.040;13.680;2023-03-14T15:31:04;0.85;;;0.73;;
25637;SDS011;13496;51.040;13.680;2023-03-14T15:36:06;0.50;;;0.50;;
25637;SDS011;13496;51.040;13.680;2023-03-14T15:41:26;0.68;;;0.68;;
25637;SDS011;13496;51.040;13.680;2023-03-14T15:46:28;0.85;;;0.65;;
25637;SDS011;13496;51.040;13.680;2023-03-14T15:51:30;0.68;;;0.68;;
25637;SDS011;13496;51.040;13.680;2023-03-14T15:56:33;0.55;;;0.55;;
25637;SDS011;13496;51.040;13.680;2023-03-14T16:01:35;0.60;;;0.60;;
25637;SDS011;13496;51.040;13.680;2023-03-14T16:06:36;0.60;;;0.60;;
25637;SDS011;13496;51.040;13.680;2023-03-14T16:11:38;0.55;;;0.55;;
25637;SDS011;13496;51.040;13.680;2023-03-14T16:16:40;0.50;;;0.50;;
25637;SDS011;13496;51.040;13.680;2023-03-14T16:21:42;0.50;;;0.50;;
25637;SDS011;13496;51.040;13.680;2023-03-14T16:26:44;0.75;;;0.75;;
25637;SDS011;13496;51.040;13.680;2023-03-14T16:31:46;0.60;;;0.60;;
25637;SDS011;13496;51.040;13.680;2023-03-14T16:36:48;0.70;;;0.70;;
25637;SDS011;13496;51.040;13.680;2023-03-14T16:41:52;0.43;;;0.43;;
25637;SDS011;13496;51.040;13.680;2023-03-14T16:46:53;2.90;;;0.77;;
25637;SDS011;13496;51.040;13.680;2023-03-14T16:51:55;32.33;;;15.37;;
25637;SDS011;13496;51.040;13.680;2023-03-14T16:56:57;37.03;;;16.92;;
25637;SDS011;13496;51.040;13.680;2023-03-14T17:01:58;30.35;;;15.15;;
25637;SDS011;13496;51.040;13.680;2023-03-14T17:07:00;38.10;;;18.23;;
25637;SDS011;13496;51.040;13.680;2023-03-14T17:12:02;20.98;;;11.18;;
25637;SDS011;13496;51.040;13.680;2023-03-14T17:17:05;29.10;;;13.83;;
25637;SDS011;13496;51.040;13.680;2023-03-14T17:22:06;26.77;;;14.25;;
25637;SDS011;13496;51.040;13.680;2023-03-14T17:27:08;29.30;;;14.40;;
25637;SDS011;13496;51.040;13.680;2023-03-14T17:32:09;31.00;;;13.60;;
25637;SDS011;13496;51.040;13.680;2023-03-14T17:37:11;35.27;;;16.47;;
25637;SDS011;13496;51.040;13.680;2023-03-14T17:42:13;36.93;;;15.97;;
25637;SDS011;13496;51.040;13.680;2023-03-14T17:47:15;42.33;;;18.53;;
25637;SDS011;13496;51.040;13.680;2023-03-14T17:52:17;46.57;;;19.10;;
25637;SDS011;13496;51.040;13.680;2023-03-14T17:57:19;40.47;;;20.15;;
25637;SDS011;13496;51.040;13.680;2023-03-14T18:02:21;39.13;;;19.53;;
25637;SDS011;13496;51.040;13.680;2023-03-14T18:07:24;42.37;;;22.77;;
25637;SDS011;13496;51.040;13.680;2023-03-14T18:12:25;44.43;;;21.93;;
25637;SDS011;13496;51.040;13.680;2023-03-14T18:17:29;46.80;;;23.03;;
25637;SDS011;13496;51.040;13.680;2023-03-14T18:22:31;45.43;;;22.60;;
25637;SDS011;13496;51.040;13.680;2023-03-14T18:27:33;47.33;;;24.77;;
25637;SDS011;13496;51.040;13.680;2023-03-14T18:32:35;46.07;;;24.37;;
25637;SDS011;13496;51.040;13.680;2023-03-14T18:37:37;46.83;;;24.98;;
25637;SDS011;13496;51.040;13.680;2023-03-14T18:42:39;46.42;;;25.05;;
25637;SDS011;13496;51.040;13.680;2023-03-14T18:47:41;47.50;;;25.53;;
25637;SDS011;13496;51.040;13.680;2023-03-14T18:52:42;46.10;;;25.90;;
25637;SDS011;13496;51.040;13.680;2023-03-14T18:57:44;49.17;;;25.00;;
25637;SDS011;13496;51.040;13.680;2023-03-14T19:02:46;47.30;;;26.33;;
25637;SDS011;13496;51.040;13.680;2023-03-14T19:07:47;42.93;;;25.97;;
25637;SDS011;13496;51.040;13.680;2023-03-14T19:12:49;49.37;;;24.80;;
25637;SDS011;13496;51.040;13.680;2023-03-14T19:17:51;47.08;;;24.75;;
25637;SDS011;13496;51.040;13.680;2023-03-14T19:22:53;47.08;;;25.05;;
25637;SDS011;13496;51.040;13.680;2023-03-14T19:27:58;43.40;;;24.00;;
25637;SDS011;13496;51.040;13.680;2023-03-14T19:33:00;40.90;;;23.50;;
25637;SDS011;13496;51.040;13.680;2023-03-14T19:38:01;46.87;;;24.63;;
25637;SDS011;13496;51.040;13.680;2023-03-14T19:43:04;37.47;;;22.23;;
25637;SDS011;13496;51.040;13.680;2023-03-14T19:48:06;37.97;;;22.63;;
25637;SDS011;13496;51.040;13.680;2023-03-14T19:53:08;40.92;;;23.65;;
25637;SDS011;13496;51.040;13.680;2023-03-14T19:58:10;38.50;;;22.37;;
25637;SDS011;13496;51.040;13.680;2023-03-14T20:03:12;38.07;;;22.53;;
25637;SDS011;13496;51.040;13.680;2023-03-14T20:08:14;34.03;;;20.13;;
25637;SDS011;13496;51.040;13.680;2023-03-14T20:13:16;40.47;;;21.37;;
25637;SDS011;13496;51.040;13.680;2023-03-14T20:18:18;33.30;;;19.37;;
25637;SDS011;13496;51.040;13.680;2023-03-14T20:23:20;34.13;;;19.67;;
25637;SDS011;13496;51.040;13.680;2023-03-14T20:28:21;33.23;;;19.47;;
25637;SDS011;13496;51.040;13.680;2023-03-14T20:33:23;32.70;;;18.70;;
25637;SDS011;13496;51.040;13.680;2023-03-14T20:38:26;29.57;;;18.27;;
25637;SDS011;13496;51.040;13.680;2023-03-14T20:43:29;30.50;;;18.73;;
25637;SDS011;13496;51.040;13.680;2023-03-14T20:48:32;29.70;;;18.33;;
25637;SDS011;13496;51.040;13.680;2023-03-14T20:53:33;28.67;;;18.00;;
25637;SDS011;13496;51.040;13.680;2023-03-14T20:58:35;26.93;;;16.80;;
25637;SDS011;13496;51.040;13.680;2023-03-14T21:03:37;26.27;;;16.73;;
25637;SDS011;13496;51.040;13.680;2023-03-14T21:08:39;28.93;;;17.07;;
25637;SDS011;13496;51.040;13.680;2023-03-14T21:13:42;26.53;;;16.17;;
25637;SDS011;13496;51.040;13.680;2023-03-14T21:18:44;27.50;;;16.57;;
25637;SDS011;13496;51.040;13.680;2023-03-14T21:23:46;23.50;;;14.77;;
25637;SDS011;13496;51.040;13.680;2023-03-14T21:28:48;24.07;;;14.73;;
25637;SDS011;13496;51.040;13.680;2023-03-14T21:33:49;25.83;;;16.35;;
25637;SDS011;13496;51.040;13.680;2023-03-14T21:38:51;22.37;;;14.77;;
25637;SDS011;13496;51.040;13.680;2023-03-14T21:43:53;22.63;;;14.30;;
25637;SDS011;13496;51.040;13.680;2023-03-14T21:48:54;22.67;;;14.57;;
25637;SDS011;13496;51.040;13.680;2023-03-14T21:53:56;25.40;;;15.17;;
25637;SDS011;13496;51.040;13.680;2023-03-14T21:58:58;20.53;;;13.30;;
25637;SDS011;13496;51.040;13.680;2023-03-14T22:04:00;21.43;;;13.50;;
25637;SDS011;13496;51.040;13.680;2023-03-14T22:09:01;20.50;;;13.67;;
25637;SDS011;13496;51.040;13.680;2023-03-14T22:14:03;18.83;;;12.80;;
25637;SDS011;13496;51.040;13.680;2023-03-14T22:19:05;18.67;;;13.07;;
25637;SDS011;13496;51.040;13.680;2023-03-14T22:24:07;24.30;;;12.87;;
25637;SDS011;13496;51.040;13.680;2023-03-14T22:29:08;18.30;;;12.17;;
25637;SDS011;13496;51.040;13.680;2023-03-14T22:34:10;19.73;;;13.00;;
25637;SDS011;13496;51.040;13.680;2023-03-14T22:39:12;19.20;;;11.80;;
25637;SDS011;13496;51.040;13.680;2023-03-14T22:44:14;17.60;;;11.97;;
25637;SDS011;13496;51.040;13.680;2023-03-14T22:49:15;19.20;;;11.80;;
25637;SDS011;13496;51.040;13.680;2023-03-14T22:54:17;17.23;;;12.17;;
25637;SDS011;13496;51.040;13.680;2023-03-14T22:59:19;17.10;;;11.63;;
25637;SDS011;13496;51.040;13.680;2023-03-14T23:04:21;17.43;;;11.50;;
25637;SDS011;13496;51.040;13.680;2023-03-14T23:09:23;16.20;;;10.90;;
25637;SDS011;13496;51.040;13.680;2023-03-14T23:14:24;16.73;;;11.53;;
25637;SDS011;13496;51.040;13.680;2023-03-14T23:19:27;15.83;;;10.63;;
25637;SDS011;13496;51.040;13.680;2023-03-14T23:24:29;16.63;;;11.07;;
25637;SDS011;13496;51.040;13.680;2023-03-14T23:29:30;17.20;;;11.00;;
25637;SDS011;13496;51.040;13.680;2023-03-14T23:34:32;15.17;;;9.93;;
25637;SDS011;13496;51.040;13.680;2023-03-14T23:39:33;14.67;;;10.43;;
25637;SDS011;13496;51.040;13.680;2023-03-14T23:44:35;16.67;;;9.60;;
25637;SDS011;13496;51.040;13.680;2023-03-14T23:49:37;13.17;;;9.50;;
25637;SDS011;13496;51.040;13.680;2023-03-14T23:54:39;13.03;;;10.03;;
25637;SDS011;13496;51.040;13.680;2023-03-14T23:59:40;12.33;;;8.40;;
